sensor_id;sensor_type;location;lat;lon;timestamp;pressure;altitude;pressure_sealevel;temperature;humidity
51313;BME280;37397;53.226;10.400;2023-05-20T00:00:33;102285.22;;;15.58;43.86
51313;BME280;37397;53.226;10.400;2023-05-20T00:03:00;102282.81;;;15.57;43.95
51313;BME280;37397;53.226;10.400;2023-05-20T00:05:26;102281.41;;;15.52;44.12
51313;BME280;37397;53.226;10.400;2023-05-20T00:07:53;102285.88;;;15.53;44.06
51313;BME280;37397;53.226;10.400;2023-05-20T00:10:19;102282.69;;;15.51;44.09
51313;BME280;37397;53.226;10.400;2023-05-20T00:12:46;102286.03;;;15.49;44.14
51313;BME280;37397;53.226;10.400;2023-05-20T00:15:12;102288.59;;;15.47;44.12
51313;BME280;37397;53.226;10.400;2023-05-20T00:17:39;102289.56;;;15.44;43.96
51313;BME280;37397;53.226;10.400;2023-05-20T00:20:06;102285.88;;;15.44;44.16
51313;BME280;37397;53.226;10.400;2023-05-20T00:22:33;102292.13;;;15.42;44.08
51313;BME280;37397;53.226;10.400;2023-05-20T00:25:00;102288.13;;;15.40;44.18
51313;BME280;37397;53.226;10.400;2023-05-20T00:27:26;102286.50;;;15.39;44.28
51313;BME280;37397;53.226;10.400;2023-05-20T00:29:53;102296.91;;;15.36;44.27
51313;BME280;37397;53.226;10.400;2023-05-20T00:32:19;102286.69;;;15.35;44.28
51313;BME280;37397;53.226;10.400;2023-05-20T00:34:55;102288.13;;;15.30;44.21
51313;BME280;37397;53.226;10.400;2023-05-20T00:37:23;102283.66;;;15.29;44.30
51313;BME280;37397;53.226;10.400;2023-05-20T00:39:49;102281.41;;;15.24;44.43
51313;BME280;37397;53.226;10.400;2023-05-20T00:42:23;102278.53;;;15.24;44.22
51313;BME280;37397;53.226;10.400;2023-05-20T00:44:50;102285.56;;;15.23;44.33
51313;BME280;37397;53.226;10.400;2023-05-20T00:47:18;102284.44;;;15.21;44.32
51313;BME280;37397;53.226;10.400;2023-05-20T00:49:46;102289.06;;;15.18;44.25
51313;BME280;37397;53.226;10.400;2023-05-20T00:52:18;102282.69;;;15.14;44.11
51313;BME280;37397;53.226;10.400;2023-05-20T00:54:44;102285.25;;;15.12;44.01
51313;BME280;37397;53.226;10.400;2023-05-20T00:57:12;102274.69;;;15.09;44.14
51313;BME280;37397;53.226;10.400;2023-05-20T00:59:39;102283.63;;;15.02;44.03
51313;BME280;37397;53.226;10.400;2023-05-20T01:02:08;102281.56;;;15.02;44.06
51313;BME280;37397;53.226;10.400;2023-05-20T01:04:34;102282.50;;;14.99;44.21
51313;BME280;37397;53.226;10.400;2023-05-20T01:07:03;102280.91;;;14.98;44.29
51313;BME280;37397;53.226;10.400;2023-05-20T01:09:31;102275.31;;;14.94;44.50
51313;BME280;37397;53.226;10.400;2023-05-20T01:12:11;102289.38;;;14.92;44.51
51313;BME280;37397;53.226;10.400;2023-05-20T01:14:50;102277.53;;;14.90;44.58
51313;BME280;37397;53.226;10.400;2023-05-20T01:17:23;102269.38;;;14.89;44.48
51313;BME280;37397;53.226;10.400;2023-05-20T01:19:54;102267.47;;;14.86;44.66
51313;BME280;37397;53.226;10.400;2023-05-20T01:22:25;102258.06;;;14.85;44.75
51313;BME280;37397;53.226;10.400;2023-05-20T01:24:52;102262.19;;;14.84;44.79
51313;BME280;37397;53.226;10.400;2023-05-20T01:27:20;102264.75;;;14.82;44.71
51313;BME280;37397;53.226;10.400;2023-05-20T01:29:49;102257.06;;;14.79;44.69
51313;BME280;37397;53.226;10.400;2023-05-20T01:32:22;102272.75;;;14.78;44.66
51313;BME280;37397;53.226;10.400;2023-05-20T01:34:51;102266.66;;;14.76;44.67
51313;BME280;37397;53.226;10.400;2023-05-20T01:37:18;102270.47;;;14.73;44.71
51313;BME280;37397;53.226;10.400;2023-05-20T01:39:46;102264.41;;;14.71;44.90
51313;BME280;37397;53.226;10.400;2023-05-20T01:42:15;102259.59;;;14.68;44.81
51313;BME280;37397;53.226;10.400;2023-05-20T01:44:42;102258.03;;;14.67;44.61
51313;BME280;37397;53.226;10.400;2023-05-20T01:47:09;102260.25;;;14.63;44.73
51313;BME280;37397;53.226;10.400;2023-05-20T01:49:35;102257.06;;;14.61;44.85
51313;BME280;37397;53.226;10.400;2023-05-20T01:52:03;102259.56;;;14.58;44.96
51313;BME280;37397;53.226;10.400;2023-05-20T01:54:29;102255.56;;;14.56;44.86
51313;BME280;37397;53.226;10.400;2023-05-20T01:56:56;102258.13;;;14.54;44.94
51313;BME280;37397;53.226;10.400;2023-05-20T01:59:22;102247.59;;;14.51;45.02
51313;BME280;37397;53.226;10.400;2023-05-20T02:01:49;102253.81;;;14.49;44.93
51313;BME280;37397;53.226;10.400;2023-05-20T02:04:16;102246.91;;;14.47;45.00
51313;BME280;37397;53.226;10.400;2023-05-20T02:06:44;102251.88;;;14.46;45.00
51313;BME280;37397;53.226;10.400;2023-05-20T02:09:11;102246.28;;;14.43;44.93
51313;BME280;37397;53.226;10.400;2023-05-20T02:11:38;102250.91;;;14.40;44.98
51313;BME280;37397;53.226;10.400;2023-05-20T02:14:04;102250.56;;;14.38;45.04
51313;BME280;37397;53.226;10.400;2023-05-20T02:16:31;102248.31;;;14.33;45.03
51313;BME280;37397;53.226;10.400;2023-05-20T02:18:58;102255.34;;;14.32;45.05
51313;BME280;37397;53.226;10.400;2023-05-20T02:21:24;102257.06;;;14.29;45.19
51313;BME280;37397;53.226;10.400;2023-05-20T02:23:52;102254.34;;;14.26;45.27
51313;BME280;37397;53.226;10.400;2023-05-20T02:26:18;102245.88;;;14.22;45.25
51313;BME280;37397;53.226;10.400;2023-05-20T02:28:45;102246.34;;;14.20;45.22
51313;BME280;37397;53.226;10.400;2023-05-20T02:31:16;102257.53;;;14.18;45.02
51313;BME280;37397;53.226;10.400;2023-05-20T02:33:44;102253.19;;;14.14;45.10
51313;BME280;37397;53.226;10.400;2023-05-20T02:36:11;102245.53;;;14.11;45.26
51313;BME280;37397;53.226;10.400;2023-05-20T02:38:37;102249.34;;;14.08;45.55
51313;BME280;37397;53.226;10.400;2023-05-20T02:41:04;102242.94;;;14.03;45.32
51313;BME280;37397;53.226;10.400;2023-05-20T02:43:32;102253.63;;;14.03;45.57
51313;BME280;37397;53.226;10.400;2023-05-20T02:45:59;102249.59;;;14.00;45.51
51313;BME280;37397;53.226;10.400;2023-05-20T02:48:26;102250.53;;;13.97;45.65
51313;BME280;37397;53.226;10.400;2023-05-20T02:50:53;102256.75;;;13.96;45.84
51313;BME280;37397;53.226;10.400;2023-05-20T02:53:19;102247.50;;;13.92;45.64
51313;BME280;37397;53.226;10.400;2023-05-20T02:55:46;102241.75;;;13.92;45.81
51313;BME280;37397;53.226;10.400;2023-05-20T02:58:13;102244.63;;;13.92;45.81
51313;BME280;37397;53.226;10.400;2023-05-20T03:00:40;102238.22;;;13.88;45.91
51313;BME280;37397;53.226;10.400;2023-05-20T03:03:07;102240.28;;;13.87;45.92
51313;BME280;37397;53.226;10.400;2023-05-20T03:05:36;102242.03;;;13.84;46.15
51313;BME280;37397;53.226;10.400;2023-05-20T03:08:07;102244.56;;;13.82;45.94
51313;BME280;37397;53.226;10.400;2023-05-20T03:10:38;102239.78;;;13.79;45.92
51313;BME280;37397;53.226;10.400;2023-05-20T03:13:06;102242.31;;;13.77;45.91
51313;BME280;37397;53.226;10.400;2023-05-20T03:15:37;102242.47;;;13.74;45.94
51313;BME280;37397;53.226;10.400;2023-05-20T03:18:05;102249.94;;;13.71;46.15
51313;BME280;37397;53.226;10.400;2023-05-20T03:20:33;102244.34;;;13.67;45.98
51313;BME280;37397;53.226;10.400;2023-05-20T03:23:02;102254.34;;;13.63;46.24
51313;BME280;37397;53.226;10.400;2023-05-20T03:25:29;102249.53;;;13.60;46.07
51313;BME280;37397;53.226;10.400;2023-05-20T03:27:56;102260.69;;;13.58;46.21
51313;BME280;37397;53.226;10.400;2023-05-20T03:30:26;102266.09;;;13.56;46.36
51313;BME280;37397;53.226;10.400;2023-05-20T03:32:55;102260.38;;;13.56;46.31
51313;BME280;37397;53.226;10.400;2023-05-20T03:35:25;102258.44;;;13.53;46.45
51313;BME280;37397;53.226;10.400;2023-05-20T03:37:51;102255.56;;;13.53;46.44
51313;BME280;37397;53.226;10.400;2023-05-20T03:40:21;102254.41;;;13.50;46.67
51313;BME280;37397;53.226;10.400;2023-05-20T03:42:47;102254.56;;;13.46;46.74
51313;BME280;37397;53.226;10.400;2023-05-20T03:45:17;102259.00;;;13.47;46.70
51313;BME280;37397;53.226;10.400;2023-05-20T03:47:58;102255.03;;;13.45;46.68
51313;BME280;37397;53.226;10.400;2023-05-20T03:50:25;102269.81;;;13.43;46.78
51313;BME280;37397;53.226;10.400;2023-05-20T03:52:51;102272.38;;;13.41;46.99
51313;BME280;37397;53.226;10.400;2023-05-20T03:55:21;102266.63;;;13.41;46.82
51313;BME280;37397;53.226;10.400;2023-05-20T03:57:47;102265.94;;;13.37;47.04
51313;BME280;37397;53.226;10.400;2023-05-20T04:00:14;102252.09;;;13.36;46.90
51313;BME280;37397;53.226;10.400;2023-05-20T04:02:42;102254.47;;;13.37;46.97
51313;BME280;37397;53.226;10.400;2023-05-20T04:05:11;102252.09;;;13.36;47.18
51313;BME280;37397;53.226;10.400;2023-05-20T04:07:38;102255.41;;;13.34;47.17
51313;BME280;37397;53.226;10.400;2023-05-20T04:10:07;102244.19;;;13.27;47.37
51313;BME280;37397;53.226;10.400;2023-05-20T04:12:33;102253.34;;;13.35;47.24
51313;BME280;37397;53.226;10.400;2023-05-20T04:15:02;102262.88;;;13.31;47.20
51313;BME280;37397;53.226;10.400;2023-05-20T04:17:35;102264.59;;;13.29;47.30
51313;BME280;37397;53.226;10.400;2023-05-20T04:20:04;102254.84;;;13.26;47.33
51313;BME280;37397;53.226;10.400;2023-05-20T04:22:34;102264.25;;;13.27;47.42
51313;BME280;37397;53.226;10.400;2023-05-20T04:25:01;102259.78;;;13.26;47.32
51313;BME280;37397;53.226;10.400;2023-05-20T04:27:30;102254.03;;;13.26;47.56
51313;BME280;37397;53.226;10.400;2023-05-20T04:29:58;102268.06;;;13.24;47.70
51313;BME280;37397;53.226;10.400;2023-05-20T04:32:31;102264.72;;;13.25;47.69
51313;BME280;37397;53.226;10.400;2023-05-20T04:34:59;102260.06;;;13.19;47.60
51313;BME280;37397;53.226;10.400;2023-05-20T04:37:31;102268.06;;;13.24;47.65
51313;BME280;37397;53.226;10.400;2023-05-20T04:39:58;102267.72;;;13.22;47.79
51313;BME280;37397;53.226;10.400;2023-05-20T04:42:26;102266.13;;;13.21;47.88
51313;BME280;37397;53.226;10.400;2023-05-20T04:44:53;102274.72;;;13.21;47.88
51313;BME280;37397;53.226;10.400;2023-05-20T04:47:20;102262.56;;;13.17;47.88
51313;BME280;37397;53.226;10.400;2023-05-20T04:49:46;102267.22;;;13.23;47.87
51313;BME280;37397;53.226;10.400;2023-05-20T04:52:13;102260.72;;;13.23;48.05
51313;BME280;37397;53.226;10.400;2023-05-20T04:54:39;102263.09;;;13.24;47.95
51313;BME280;37397;53.226;10.400;2023-05-20T04:57:07;102263.91;;;13.25;48.14
51313;BME280;37397;53.226;10.400;2023-05-20T04:59:34;102266.31;;;13.26;48.00
51313;BME280;37397;53.226;10.400;2023-05-20T05:02:01;102264.25;;;13.27;48.06
51313;BME280;37397;53.226;10.400;2023-05-20T05:04:28;102268.72;;;13.28;48.20
51313;BME280;37397;53.226;10.400;2023-05-20T05:06:55;102258.06;;;13.28;48.28
51313;BME280;37397;53.226;10.400;2023-05-20T05:09:22;102254.84;;;13.26;48.27
51313;BME280;37397;53.226;10.400;2023-05-20T05:11:48;102249.94;;;13.27;48.47
51313;BME280;37397;53.226;10.400;2023-05-20T05:14:15;102256.44;;;13.27;48.39
51313;BME280;37397;53.226;10.400;2023-05-20T05:16:42;102254.72;;;13.30;48.36
51313;BME280;37397;53.226;10.400;2023-05-20T05:19:09;102258.84;;;13.29;48.52
51313;BME280;37397;53.226;10.400;2023-05-20T05:21:37;102263.66;;;13.32;48.50
51313;BME280;37397;53.226;10.400;2023-05-20T05:24:04;102270.22;;;13.32;48.75
51313;BME280;37397;53.226;10.400;2023-05-20T05:26:31;102269.38;;;13.32;48.63
51313;BME280;37397;53.226;10.400;2023-05-20T05:28:57;102264.34;;;13.36;48.60
51313;BME280;37397;53.226;10.400;2023-05-20T05:31:24;102260.22;;;13.37;48.70
51313;BME280;37397;53.226;10.400;2023-05-20T05:33:51;102260.53;;;13.39;48.88
51313;BME280;37397;53.226;10.400;2023-05-20T05:36:17;102255.16;;;13.41;48.96
51313;BME280;37397;53.226;10.400;2023-05-20T05:38:44;102266.50;;;13.45;49.08
51313;BME280;37397;53.226;10.400;2023-05-20T05:41:10;102250.41;;;13.47;49.04
51313;BME280;37397;53.226;10.400;2023-05-20T05:43:37;102256.50;;;13.49;48.96
51313;BME280;37397;53.226;10.400;2023-05-20T05:46:05;102252.34;;;13.50;49.06
51313;BME280;37397;53.226;10.400;2023-05-20T05:48:31;102248.06;;;13.55;49.00
51313;BME280;37397;53.226;10.400;2023-05-20T05:50:58;102247.59;;;13.57;49.10
51313;BME280;37397;53.226;10.400;2023-05-20T05:53:25;102239.00;;;13.57;49.28
51313;BME280;37397;53.226;10.400;2023-05-20T05:55:52;102248.59;;;13.63;49.21
51313;BME280;37397;53.226;10.400;2023-05-20T05:58:19;102241.59;;;13.64;49.36
51313;BME280;37397;53.226;10.400;2023-05-20T06:00:45;102248.81;;;13.68;49.32
51313;BME280;37397;53.226;10.400;2023-05-20T06:03:12;102252.47;;;13.69;49.46
51313;BME280;37397;53.226;10.400;2023-05-20T06:05:39;102251.88;;;13.74;49.41
51313;BME280;37397;53.226;10.400;2023-05-20T06:08:06;102250.94;;;13.77;49.56
51313;BME280;37397;53.226;10.400;2023-05-20T06:10:34;102238.97;;;13.79;49.42
51313;BME280;37397;53.226;10.400;2023-05-20T06:13:01;102242.03;;;13.84;49.63
51313;BME280;37397;53.226;10.400;2023-05-20T06:15:27;102244.91;;;13.84;49.74
51313;BME280;37397;53.226;10.400;2023-05-20T06:17:54;102241.91;;;13.88;49.79
51313;BME280;37397;53.226;10.400;2023-05-20T06:20:21;102230.28;;;13.92;49.98
51313;BME280;37397;53.226;10.400;2023-05-20T06:22:48;102237.94;;;13.95;49.83
51313;BME280;37397;53.226;10.400;2023-05-20T06:25:15;102241.94;;;13.97;49.94
51313;BME280;37397;53.226;10.400;2023-05-20T06:27:42;102240.66;;;13.98;49.76
51313;BME280;37397;53.226;10.400;2023-05-20T06:30:12;102238.13;;;14.00;49.82
51313;BME280;37397;53.226;10.400;2023-05-20T06:32:38;102246.94;;;14.06;50.03
51313;BME280;37397;53.226;10.400;2023-05-20T06:35:05;102243.91;;;14.10;49.98
51313;BME280;37397;53.226;10.400;2023-05-20T06:37:32;102254.00;;;14.14;49.95
51313;BME280;37397;53.226;10.400;2023-05-20T06:39:59;102250.66;;;14.16;50.13
51313;BME280;37397;53.226;10.400;2023-05-20T06:42:27;102250.66;;;14.16;50.12
51313;BME280;37397;53.226;10.400;2023-05-20T06:45:03;102255.28;;;14.22;50.30
51313;BME280;37397;53.226;10.400;2023-05-20T06:47:34;102243.50;;;14.20;50.60
51313;BME280;37397;53.226;10.400;2023-05-20T06:50:01;102250.53;;;14.29;50.41
51313;BME280;37397;53.226;10.400;2023-05-20T06:52:29;102242.56;;;14.33;50.62
51313;BME280;37397;53.226;10.400;2023-05-20T06:54:56;102240.03;;;14.35;51.01
51313;BME280;37397;53.226;10.400;2023-05-20T06:57:23;102224.38;;;14.36;51.40
51313;BME280;37397;53.226;10.400;2023-05-20T06:59:50;102233.03;;;14.45;51.42
51313;BME280;37397;53.226;10.400;2023-05-20T07:02:20;102227.94;;;14.49;51.03
51313;BME280;37397;53.226;10.400;2023-05-20T07:04:47;102232.75;;;14.52;51.76
51313;BME280;37397;53.226;10.400;2023-05-20T07:07:14;102223.19;;;14.55;51.73
51313;BME280;37397;53.226;10.400;2023-05-20T07:09:43;102231.19;;;14.61;51.89
51313;BME280;37397;53.226;10.400;2023-05-20T07:12:10;102221.63;;;14.64;51.96
51313;BME280;37397;53.226;10.400;2023-05-20T07:14:37;102231.19;;;14.70;51.84
51313;BME280;37397;53.226;10.400;2023-05-20T07:17:04;102224.50;;;14.73;51.79
51313;BME280;37397;53.226;10.400;2023-05-20T07:19:31;102222.59;;;14.79;52.14
51313;BME280;37397;53.226;10.400;2023-05-20T07:21:59;102228.19;;;14.83;52.04
51313;BME280;37397;53.226;10.400;2023-05-20T07:24:35;102216.06;;;14.88;51.83
51313;BME280;37397;53.226;10.400;2023-05-20T07:27:03;102213.03;;;14.91;52.16
51313;BME280;37397;53.226;10.400;2023-05-20T07:29:29;102204.25;;;14.95;51.76
51313;BME280;37397;53.226;10.400;2023-05-20T07:31:56;102192.91;;;15.01;51.76
51313;BME280;37397;53.226;10.400;2023-05-20T07:34:23;102198.97;;;15.03;52.04
51313;BME280;37397;53.226;10.400;2023-05-20T07:36:50;102197.53;;;15.07;51.85
51313;BME280;37397;53.226;10.400;2023-05-20T07:39:16;102203.91;;;15.11;51.80
51313;BME280;37397;53.226;10.400;2023-05-20T07:41:43;102203.78;;;15.15;51.89
51313;BME280;37397;53.226;10.400;2023-05-20T07:44:11;102199.44;;;15.20;51.62
51313;BME280;37397;53.226;10.400;2023-05-20T07:46:42;102197.69;;;15.22;51.89
51313;BME280;37397;53.226;10.400;2023-05-20T07:49:10;102196.72;;;15.25;51.86
51313;BME280;37397;53.226;10.400;2023-05-20T07:51:38;102194.16;;;15.27;51.69
51313;BME280;37397;53.226;10.400;2023-05-20T07:54:05;102199.25;;;15.32;51.83
51313;BME280;37397;53.226;10.400;2023-05-20T07:56:31;102211.41;;;15.37;51.85
51313;BME280;37397;53.226;10.400;2023-05-20T07:58:59;102211.72;;;15.39;51.65
51313;BME280;37397;53.226;10.400;2023-05-20T08:01:30;102200.53;;;15.41;51.68
51313;BME280;37397;53.226;10.400;2023-05-20T08:03:57;102204.03;;;15.45;51.66
51313;BME280;37397;53.226;10.400;2023-05-20T08:06:24;102209.63;;;15.48;51.60
51313;BME280;37397;53.226;10.400;2023-05-20T08:08:54;102194.75;;;15.50;51.62
51313;BME280;37397;53.226;10.400;2023-05-20T08:11:27;102207.69;;;15.55;51.52
51313;BME280;37397;53.226;10.400;2023-05-20T08:13:53;102200.97;;;15.58;51.62
51313;BME280;37397;53.226;10.400;2023-05-20T08:16:22;102198.75;;;15.62;51.52
51313;BME280;37397;53.226;10.400;2023-05-20T08:18:49;102199.03;;;15.64;51.39
51313;BME280;37397;53.226;10.400;2023-05-20T08:21:19;102192.03;;;15.65;51.50
51313;BME280;37397;53.226;10.400;2023-05-20T08:23:45;102190.53;;;15.69;51.43
51313;BME280;37397;53.226;10.400;2023-05-20T08:26:12;102203.19;;;15.72;51.34
51313;BME280;37397;53.226;10.400;2023-05-20T08:28:40;102191.84;;;15.78;51.33
51313;BME280;37397;53.226;10.400;2023-05-20T08:31:07;102174.56;;;15.78;51.39
51313;BME280;37397;53.226;10.400;2023-05-20T08:33:34;102187.34;;;15.86;51.37
51313;BME280;37397;53.226;10.400;2023-05-20T08:36:00;102180.63;;;15.89;51.24
51313;BME280;37397;53.226;10.400;2023-05-20T08:38:28;102179.47;;;15.96;51.11
51313;BME280;37397;53.226;10.400;2023-05-20T08:40:56;102191.28;;;15.98;51.00
51313;BME280;37397;53.226;10.400;2023-05-20T08:43:24;102193.78;;;16.05;50.99
51313;BME280;37397;53.226;10.400;2023-05-20T08:45:51;102190.44;;;16.07;50.66
51313;BME280;37397;53.226;10.400;2023-05-20T08:48:21;102188.66;;;16.09;50.98
51313;BME280;37397;53.226;10.400;2023-05-20T08:50:52;102181.44;;;16.14;50.53
51313;BME280;37397;53.226;10.400;2023-05-20T08:53:21;102189.13;;;16.17;50.49
51313;BME280;37397;53.226;10.400;2023-05-20T08:55:52;102179.16;;;16.18;50.26
51313;BME280;37397;53.226;10.400;2023-05-20T08:58:20;102176.63;;;16.20;50.33
51313;BME280;37397;53.226;10.400;2023-05-20T09:00:46;102182.97;;;16.24;50.05
51313;BME280;37397;53.226;10.400;2023-05-20T09:03:13;102172.28;;;16.25;49.97
51313;BME280;37397;53.226;10.400;2023-05-20T09:05:40;102163.75;;;16.30;49.91
51313;BME280;37397;53.226;10.400;2023-05-20T09:08:07;102158.28;;;16.32;49.91
51313;BME280;37397;53.226;10.400;2023-05-20T09:10:35;102155.41;;;16.32;49.67
51313;BME280;37397;53.226;10.400;2023-05-20T09:13:03;102164.97;;;16.38;49.79
51313;BME280;37397;53.226;10.400;2023-05-20T09:15:31;102168.19;;;16.40;49.73
51313;BME280;37397;53.226;10.400;2023-05-20T09:17:59;102154.06;;;16.43;49.66
51313;BME280;37397;53.226;10.400;2023-05-20T09:20:27;102163.00;;;16.45;49.68
51313;BME280;37397;53.226;10.400;2023-05-20T09:22:59;102159.16;;;16.48;49.62
51313;BME280;37397;53.226;10.400;2023-05-20T09:25:26;102153.69;;;16.50;49.65
51313;BME280;37397;53.226;10.400;2023-05-20T09:27:52;102154.81;;;16.52;49.68
51313;BME280;37397;53.226;10.400;2023-05-20T09:30:21;102145.19;;;16.55;49.67
51313;BME280;37397;53.226;10.400;2023-05-20T09:32:58;102143.38;;;16.58;49.66
51313;BME280;37397;53.226;10.400;2023-05-20T09:35:26;102148.16;;;16.61;49.71
51313;BME280;37397;53.226;10.400;2023-05-20T09:37:54;102141.41;;;16.64;49.54
51313;BME280;37397;53.226;10.400;2023-05-20T09:40:25;102150.69;;;16.68;49.63
51313;BME280;37397;53.226;10.400;2023-05-20T09:43:02;102158.34;;;16.71;49.43
51313;BME280;37397;53.226;10.400;2023-05-20T09:45:29;102145.84;;;16.74;49.48
51313;BME280;37397;53.226;10.400;2023-05-20T09:47:56;102142.47;;;16.76;49.49
51313;BME280;37397;53.226;10.400;2023-05-20T09:50:23;102145.63;;;16.78;49.36
51313;BME280;37397;53.226;10.400;2023-05-20T09:52:51;102142.56;;;16.82;49.36
51313;BME280;37397;53.226;10.400;2023-05-20T09:55:20;102123.03;;;16.86;49.25
51313;BME280;37397;53.226;10.400;2023-05-20T09:57:47;102131.97;;;16.88;49.16
51313;BME280;37397;53.226;10.400;2023-05-20T10:00:15;102126.78;;;16.92;49.10
51313;BME280;37397;53.226;10.400;2023-05-20T10:02:51;102132.38;;;16.95;49.21
51313;BME280;37397;53.226;10.400;2023-05-20T10:05:29;102126.13;;;16.97;48.98
51313;BME280;37397;53.226;10.400;2023-05-20T10:08:13;102133.78;;;17.00;48.93
51313;BME280;37397;53.226;10.400;2023-05-20T10:10:57;102134.88;;;17.03;49.08
51313;BME280;37397;53.226;10.400;2023-05-20T10:13:49;102134.38;;;17.04;49.00
51313;BME280;37397;53.226;10.400;2023-05-20T10:16:45;102128.31;;;17.02;48.92
51313;BME280;37397;53.226;10.400;2023-05-20T10:19:31;102126.81;;;17.07;48.95
51313;BME280;37397;53.226;10.400;2023-05-20T10:22:06;102132.41;;;17.10;48.73
51313;BME280;37397;53.226;10.400;2023-05-20T10:24:42;102134.28;;;17.13;48.98
51313;BME280;37397;53.226;10.400;2023-05-20T10:27:13;102130.09;;;17.14;48.68
51313;BME280;37397;53.226;10.400;2023-05-20T10:29:48;102121.75;;;17.17;48.66
51313;BME280;37397;53.226;10.400;2023-05-20T10:32:28;102135.69;;;17.18;48.80
51313;BME280;37397;53.226;10.400;2023-05-20T10:35:03;102139.66;;;17.21;48.67
51313;BME280;37397;53.226;10.400;2023-05-20T10:37:38;102124.22;;;17.24;48.55
51313;BME280;37397;53.226;10.400;2023-05-20T10:40:07;102120.06;;;17.25;48.49
51313;BME280;37397;53.226;10.400;2023-05-20T10:42:33;102107.25;;;17.26;48.75
51313;BME280;37397;53.226;10.400;2023-05-20T10:45:00;102109.09;;;17.29;48.53
51313;BME280;37397;53.226;10.400;2023-05-20T10:47:26;102110.72;;;17.30;48.48
51313;BME280;37397;53.226;10.400;2023-05-20T10:49:53;102106.53;;;17.31;48.73
51313;BME280;37397;53.226;10.400;2023-05-20T10:52:20;102102.34;;;17.32;48.58
51313;BME280;37397;53.226;10.400;2023-05-20T10:57:20;102098.16;;;17.33;48.65
51313;BME280;37397;53.226;10.400;2023-05-20T10:59:47;102098.78;;;17.37;48.55
51313;BME280;37397;53.226;10.400;2023-05-20T11:02:15;102096.19;;;17.39;48.62
51313;BME280;37397;53.226;10.400;2023-05-20T11:04:43;102106.13;;;17.38;48.78
51313;BME280;37397;53.226;10.400;2023-05-20T11:07:09;102099.84;;;17.40;48.51
51313;BME280;37397;53.226;10.400;2023-05-20T11:09:36;102105.13;;;17.41;48.71
51313;BME280;37397;53.226;10.400;2023-05-20T11:12:03;102100.13;;;17.42;48.39
51313;BME280;37397;53.226;10.400;2023-05-20T11:14:30;102098.34;;;17.44;48.53
51313;BME280;37397;53.226;10.400;2023-05-20T11:16:57;102088.59;;;17.42;48.40
51313;BME280;37397;53.226;10.400;2023-05-20T11:19:26;102092.09;;;17.46;48.63
51313;BME280;37397;53.226;10.400;2023-05-20T11:21:53;102095.75;;;17.46;48.63
51313;BME280;37397;53.226;10.400;2023-05-20T11:24:24;102089.50;;;17.48;48.61
51313;BME280;37397;53.226;10.400;2023-05-20T11:26:55;102089.00;;;17.49;48.49
51313;BME280;37397;53.226;10.400;2023-05-20T11:29:25;102095.06;;;17.52;48.67
51313;BME280;37397;53.226;10.400;2023-05-20T11:31:52;102084.81;;;17.50;48.76
51313;BME280;37397;53.226;10.400;2023-05-20T11:34:22;102092.16;;;17.52;48.73
51313;BME280;37397;53.226;10.400;2023-05-20T11:36:56;102086.38;;;17.52;48.58
51313;BME280;37397;53.226;10.400;2023-05-20T11:39:23;102091.47;;;17.57;48.57
51313;BME280;37397;53.226;10.400;2023-05-20T11:41:50;102091.00;;;17.58;48.85
51313;BME280;37397;53.226;10.400;2023-05-20T11:44:18;102097.53;;;17.59;48.65
51313;BME280;37397;53.226;10.400;2023-05-20T11:46:46;102093.38;;;17.60;48.81
51313;BME280;37397;53.226;10.400;2023-05-20T11:49:14;102096.53;;;17.62;48.87
51313;BME280;37397;53.226;10.400;2023-05-20T11:51:42;102092.38;;;17.63;48.62
51313;BME280;37397;53.226;10.400;2023-05-20T11:54:09;102093.94;;;17.64;48.83
51313;BME280;37397;53.226;10.400;2023-05-20T11:56:36;102091.34;;;17.66;48.82
51313;BME280;37397;53.226;10.400;2023-05-20T11:59:04;102085.56;;;17.66;48.82
51313;BME280;37397;53.226;10.400;2023-05-20T12:01:33;102093.72;;;17.67;48.62
51313;BME280;37397;53.226;10.400;2023-05-20T12:04:04;102090.84;;;17.67;48.70
51313;BME280;37397;53.226;10.400;2023-05-20T12:06:31;102084.56;;;17.69;48.83
51313;BME280;37397;53.226;10.400;2023-05-20T12:09:00;102082.50;;;17.70;48.82
51313;BME280;37397;53.226;10.400;2023-05-20T12:11:33;102075.13;;;17.68;48.64
51313;BME280;37397;53.226;10.400;2023-05-20T12:14:01;102070.44;;;17.71;48.73
51313;BME280;37397;53.226;10.400;2023-05-20T12:16:30;102072.03;;;17.72;48.65
51313;BME280;37397;53.226;10.400;2023-05-20T12:18:57;102069.13;;;17.72;48.62
51313;BME280;37397;53.226;10.400;2023-05-20T12:21:24;102070.22;;;17.75;48.65
51313;BME280;37397;53.226;10.400;2023-05-20T12:23:50;102069.72;;;17.76;48.99
51313;BME280;37397;53.226;10.400;2023-05-20T12:26:23;102066.84;;;17.76;48.86
51313;BME280;37397;53.226;10.400;2023-05-20T12:28:51;102061.06;;;17.76;48.65
51313;BME280;37397;53.226;10.400;2023-05-20T12:31:17;102062.63;;;17.77;48.90
51313;BME280;37397;53.226;10.400;2023-05-20T12:33:44;102070.00;;;17.78;48.79
51313;BME280;37397;53.226;10.400;2023-05-20T12:36:11;102056.06;;;17.77;48.83
51313;BME280;37397;53.226;10.400;2023-05-20T12:38:38;102055.88;;;17.80;48.80
51313;BME280;37397;53.226;10.400;2023-05-20T12:41:05;102055.06;;;17.80;48.77
51313;BME280;37397;53.226;10.400;2023-05-20T12:43:31;102052.97;;;17.80;48.67
51313;BME280;37397;53.226;10.400;2023-05-20T12:46:01;102042.75;;;17.79;48.77
51313;BME280;37397;53.226;10.400;2023-05-20T12:48:28;102044.31;;;17.80;48.96